sensor_id;sensor_type;location;lat;lon;timestamp;temperature;humidity
69208;SHT31;56321;47.662;8.878;2022-09-12T00:01:43;15.26;70.36
69208;SHT31;56321;47.662;8.878;2022-09-12T00:04:09;15.29;70.38
69208;SHT31;56321;47.662;8.878;2022-09-12T00:06:36;15.23;70.41
69208;SHT31;56321;47.662;8.878;2022-09-12T00:09:08;15.20;70.53
69208;SHT31;56321;47.662;8.878;2022-09-12T00:11:35;15.20;70.65
69208;SHT31;56321;47.662;8.878;2022-09-12T00:14:02;15.18;70.68
69208;SHT31;56321;47.662;8.878;2022-09-12T00:16:29;15.19;70.74
69208;SHT31;56321;47.662;8.878;2022-09-12T00:18:55;15.13;70.83
69208;SHT31;56321;47.662;8.878;2022-09-12T00:21:21;15.12;70.91
69208;SHT31;56321;47.662;8.878;2022-09-12T00:23:47;15.10;70.86
69208;SHT31;56321;47.662;8.878;2022-09-12T00:26:13;15.10;70.79
69208;SHT31;56321;47.662;8.878;2022-09-12T00:28:40;15.07;70.68
69208;SHT31;56321;47.662;8.878;2022-09-12T00:31:08;15.07;70.62
69208;SHT31;56321;47.662;8.878;2022-09-12T00:33:34;15.06;70.79
69208;SHT31;56321;47.662;8.878;2022-09-12T00:36:04;15.04;70.76
69208;SHT31;56321;47.662;8.878;2022-09-12T00:38:30;15.00;70.64
69208;SHT31;56321;47.662;8.878;2022-09-12T00:40:55;14.99;70.73
69208;SHT31;56321;47.662;8.878;2022-09-12T00:43:36;14.95;70.79
69208;SHT31;56321;47.662;8.878;2022-09-12T00:48:51;14.91;70.73
69208;SHT31;56321;47.662;8.878;2022-09-12T00:51:20;14.88;70.57
69208;SHT31;56321;47.662;8.878;2022-09-12T00:53:47;14.88;70.46
69208;SHT31;56321;47.662;8.878;2022-09-12T00:56:16;14.84;70.52
69208;SHT31;56321;47.662;8.878;2022-09-12T00:58:47;14.79;70.66
69208;SHT31;56321;47.662;8.878;2022-09-12T01:01:15;14.76;70.72
69208;SHT31;56321;47.662;8.878;2022-09-12T01:03:41;14.78;70.74
69208;SHT31;56321;47.662;8.878;2022-09-12T01:06:20;14.71;71.14
69208;SHT31;56321;47.662;8.878;2022-09-12T01:08:47;14.71;71.02
69208;SHT31;56321;47.662;8.878;2022-09-12T01:11:14;14.68;71.06
69208;SHT31;56321;47.662;8.878;2022-09-12T01:13:40;14.63;71.13
69208;SHT31;56321;47.662;8.878;2022-09-12T01:16:06;14.63;71.25
69208;SHT31;56321;47.662;8.878;2022-09-12T01:27:09;14.54;72.09
69208;SHT31;56321;47.662;8.878;2022-09-12T01:32:48;14.55;72.00
69208;SHT31;56321;47.662;8.878;2022-09-12T01:43:40;14.57;71.36
69208;SHT31;56321;47.662;8.878;2022-09-12T01:46:16;14.57;71.85
69208;SHT31;56321;47.662;8.878;2022-09-12T01:49:01;14.58;71.70
69208;SHT31;56321;47.662;8.878;2022-09-12T01:51:48;14.57;72.16
69208;SHT31;56321;47.662;8.878;2022-09-12T01:54:21;14.60;72.12
69208;SHT31;56321;47.662;8.878;2022-09-12T01:56:51;14.60;72.33
69208;SHT31;56321;47.662;8.878;2022-09-12T01:59:26;14.63;72.50
69208;SHT31;56321;47.662;8.878;2022-09-12T02:01:59;14.67;72.75
69208;SHT31;56321;47.662;8.878;2022-09-12T02:04:29;14.71;72.87
69208;SHT31;56321;47.662;8.878;2022-09-12T02:07:01;14.74;73.13
69208;SHT31;56321;47.662;8.878;2022-09-12T02:09:36;14.81;73.19
69208;SHT31;56321;47.662;8.878;2022-09-12T02:12:05;14.85;73.20
69208;SHT31;56321;47.662;8.878;2022-09-12T02:14:37;14.89;73.39
69208;SHT31;56321;47.662;8.878;2022-09-12T02:17:07;14.98;73.56
69208;SHT31;56321;47.662;8.878;2022-09-12T02:19:38;15.00;73.74
69208;SHT31;56321;47.662;8.878;2022-09-12T02:22:05;15.04;73.87
69208;SHT31;56321;47.662;8.878;2022-09-12T02:24:37;15.07;73.98
69208;SHT31;56321;47.662;8.878;2022-09-12T02:27:15;15.12;74.10
69208;SHT31;56321;47.662;8.878;2022-09-12T02:29:43;15.13;74.04
69208;SHT31;56321;47.662;8.878;2022-09-12T02:32:27;15.18;74.24
69208;SHT31;56321;47.662;8.878;2022-09-12T02:35:00;15.22;74.15
69208;SHT31;56321;47.662;8.878;2022-09-12T02:40:11;15.26;74.45
69208;SHT31;56321;47.662;8.878;2022-09-12T02:42:37;15.32;74.79
69208;SHT31;56321;47.662;8.878;2022-09-12T02:45:03;15.34;75.14
69208;SHT31;56321;47.662;8.878;2022-09-12T02:47:36;15.40;75.59
69208;SHT31;56321;47.662;8.878;2022-09-12T02:50:03;15.44;75.52
69208;SHT31;56321;47.662;8.878;2022-09-12T02:52:30;15.53;75.61
69208;SHT31;56321;47.662;8.878;2022-09-12T02:54:56;15.55;75.67
69208;SHT31;56321;47.662;8.878;2022-09-12T02:57:22;15.60;75.62
69208;SHT31;56321;47.662;8.878;2022-09-12T02:59:50;15.61;75.47
69208;SHT31;56321;47.662;8.878;2022-09-12T03:05:07;15.61;75.29
69208;SHT31;56321;47.662;8.878;2022-09-12T03:13:20;15.60;74.97
69208;SHT31;56321;47.662;8.878;2022-09-12T03:16:40;15.54;75.88
69208;SHT31;56321;47.662;8.878;2022-09-12T03:24:23;15.58;75.22
69208;SHT31;56321;47.662;8.878;2022-09-12T03:26:58;15.58;75.10
69208;SHT31;56321;47.662;8.878;2022-09-12T03:29:25;15.58;74.86
69208;SHT31;56321;47.662;8.878;2022-09-12T03:31:56;15.60;74.74
69208;SHT31;56321;47.662;8.878;2022-09-12T03:34:24;15.57;74.82
69208;SHT31;56321;47.662;8.878;2022-09-12T03:36:50;15.55;74.85
69208;SHT31;56321;47.662;8.878;2022-09-12T03:39:16;15.53;74.93
69208;SHT31;56321;47.662;8.878;2022-09-12T03:41:41;15.53;74.96
69208;SHT31;56321;47.662;8.878;2022-09-12T03:44:06;15.55;75.00
69208;SHT31;56321;47.662;8.878;2022-09-12T03:46:32;15.57;74.98
69208;SHT31;56321;47.662;8.878;2022-09-12T03:48:57;15.57;74.94
69208;SHT31;56321;47.662;8.878;2022-09-12T03:51:23;15.60;74.98
69208;SHT31;56321;47.662;8.878;2022-09-12T03:53:48;15.61;75.04
69208;SHT31;56321;47.662;8.878;2022-09-12T03:56:14;15.64;75.08
69208;SHT31;56321;47.662;8.878;2022-09-12T03:58:39;15.61;75.11
69208;SHT31;56321;47.662;8.878;2022-09-12T04:01:14;15.62;75.27
69208;SHT31;56321;47.662;8.878;2022-09-12T04:03:40;15.65;75.22
69208;SHT31;56321;47.662;8.878;2022-09-12T04:06:06;15.64;75.28
69208;SHT31;56321;47.662;8.878;2022-09-12T04:08:33;15.62;75.36
69208;SHT31;56321;47.662;8.878;2022-09-12T04:11:04;15.68;75.52
69208;SHT31;56321;47.662;8.878;2022-09-12T04:13:30;15.70;75.53
69208;SHT31;56321;47.662;8.878;2022-09-12T04:15:57;15.71;75.47
69208;SHT31;56321;47.662;8.878;2022-09-12T04:18:22;15.71;75.41
69208;SHT31;56321;47.662;8.878;2022-09-12T04:20:47;15.70;75.30
69208;SHT31;56321;47.662;8.878;2022-09-12T04:23:13;15.72;75.17
69208;SHT31;56321;47.662;8.878;2022-09-12T04:25:38;15.74;75.04
69208;SHT31;56321;47.662;8.878;2022-09-12T04:28:03;15.71;74.92
69208;SHT31;56321;47.662;8.878;2022-09-12T04:30:29;15.70;74.84
69208;SHT31;56321;47.662;8.878;2022-09-12T04:32:54;15.68;74.88
69208;SHT31;56321;47.662;8.878;2022-09-12T04:35:19;15.67;74.87
69208;SHT31;56321;47.662;8.878;2022-09-12T04:37:45;15.67;74.83
69208;SHT31;56321;47.662;8.878;2022-09-12T04:40:10;15.65;74.76
69208;SHT31;56321;47.662;8.878;2022-09-12T04:42:35;15.62;74.90
69208;SHT31;56321;47.662;8.878;2022-09-12T04:45:01;15.62;75.05
69208;SHT31;56321;47.662;8.878;2022-09-12T04:47:26;15.61;75.40
69208;SHT31;56321;47.662;8.878;2022-09-12T04:49:52;15.64;75.58
69208;SHT31;56321;47.662;8.878;2022-09-12T04:52:18;15.65;75.70
69208;SHT31;56321;47.662;8.878;2022-09-12T04:54:43;15.67;75.78
69208;SHT31;56321;47.662;8.878;2022-09-12T04:57:09;15.68;75.77
69208;SHT31;56321;47.662;8.878;2022-09-12T04:59:34;15.70;75.82
69208;SHT31;56321;47.662;8.878;2022-09-12T05:01:59;15.71;75.84
69208;SHT31;56321;47.662;8.878;2022-09-12T05:04:26;15.74;75.74
69208;SHT31;56321;47.662;8.878;2022-09-12T05:06:51;15.74;75.78
69208;SHT31;56321;47.662;8.878;2022-09-12T05:09:16;15.72;75.94
69208;SHT31;56321;47.662;8.878;2022-09-12T05:11:43;15.72;76.06
69208;SHT31;56321;47.662;8.878;2022-09-12T05:14:09;15.70;75.94
69208;SHT31;56321;47.662;8.878;2022-09-12T05:16:35;15.70;75.62
69208;SHT31;56321;47.662;8.878;2022-09-12T05:19:01;15.71;75.46
69208;SHT31;56321;47.662;8.878;2022-09-12T05:21:26;15.68;75.39
69208;SHT31;56321;47.662;8.878;2022-09-12T05:23:53;15.67;75.45
69208;SHT31;56321;47.662;8.878;2022-09-12T05:26:19;15.65;75.62
69208;SHT31;56321;47.662;8.878;2022-09-12T05:28:46;15.67;75.64
69208;SHT31;56321;47.662;8.878;2022-09-12T05:33:43;15.70;75.77
69208;SHT31;56321;47.662;8.878;2022-09-12T05:36:11;15.68;75.89
69208;SHT31;56321;47.662;8.878;2022-09-12T05:38:37;15.72;76.05
69208;SHT31;56321;47.662;8.878;2022-09-12T05:41:08;15.71;76.12
69208;SHT31;56321;47.662;8.878;2022-09-12T05:43:35;15.74;76.13
69208;SHT31;56321;47.662;8.878;2022-09-12T05:46:07;15.75;76.19
69208;SHT31;56321;47.662;8.878;2022-09-12T05:48:34;15.74;76.24
69208;SHT31;56321;47.662;8.878;2022-09-12T05:51:04;15.77;76.25
69208;SHT31;56321;47.662;8.878;2022-09-12T05:53:35;15.78;76.29
69208;SHT31;56321;47.662;8.878;2022-09-12T05:56:08;15.82;76.30
69208;SHT31;56321;47.662;8.878;2022-09-12T05:58:35;15.85;76.19
69208;SHT31;56321;47.662;8.878;2022-09-12T06:01:06;15.87;76.22
69208;SHT31;56321;47.662;8.878;2022-09-12T06:03:33;15.88;76.24
69208;SHT31;56321;47.662;8.878;2022-09-12T06:06:03;15.89;76.41
69208;SHT31;56321;47.662;8.878;2022-09-12T06:08:31;15.92;76.18
69208;SHT31;56321;47.662;8.878;2022-09-12T06:11:03;15.95;76.17
69208;SHT31;56321;47.662;8.878;2022-09-12T06:13:31;15.98;75.92
69208;SHT31;56321;47.662;8.878;2022-09-12T06:16:04;15.98;75.97
69208;SHT31;56321;47.662;8.878;2022-09-12T06:18:31;16.04;75.90
69208;SHT31;56321;47.662;8.878;2022-09-12T06:20:56;16.06;75.81
69208;SHT31;56321;47.662;8.878;2022-09-12T06:23:23;16.05;75.73
69208;SHT31;56321;47.662;8.878;2022-09-12T06:25:49;16.10;75.86
69208;SHT31;56321;47.662;8.878;2022-09-12T06:28:14;16.10;75.57
69208;SHT31;56321;47.662;8.878;2022-09-12T06:30:40;16.12;75.61
69208;SHT31;56321;47.662;8.878;2022-09-12T06:33:05;16.15;75.61
69208;SHT31;56321;47.662;8.878;2022-09-12T06:35:35;16.19;75.48
69208;SHT31;56321;47.662;8.878;2022-09-12T06:38:00;16.25;75.45
69208;SHT31;56321;47.662;8.878;2022-09-12T06:40:26;16.29;75.41
69208;SHT31;56321;47.662;8.878;2022-09-12T06:42:52;16.34;75.24
69208;SHT31;56321;47.662;8.878;2022-09-12T06:45:17;16.36;75.32
69208;SHT31;56321;47.662;8.878;2022-09-12T06:47:44;16.42;75.01
69208;SHT31;56321;47.662;8.878;2022-09-12T06:50:09;16.40;74.95
69208;SHT31;56321;47.662;8.878;2022-09-12T06:52:35;16.40;74.96
69208;SHT31;56321;47.662;8.878;2022-09-12T06:55:00;16.39;75.08
69208;SHT31;56321;47.662;8.878;2022-09-12T06:57:26;16.37;75.30
69208;SHT31;56321;47.662;8.878;2022-09-12T06:59:55;16.37;75.39
69208;SHT31;56321;47.662;8.878;2022-09-12T07:02:20;16.36;75.53
69208;SHT31;56321;47.662;8.878;2022-09-12T07:04:46;16.39;75.76
69208;SHT31;56321;47.662;8.878;2022-09-12T07:07:11;16.40;75.75
69208;SHT31;56321;47.662;8.878;2022-09-12T07:09:37;16.45;75.74
69208;SHT31;56321;47.662;8.878;2022-09-12T07:12:02;16.47;75.44
69208;SHT31;56321;47.662;8.878;2022-09-12T07:14:29;16.53;75.52
69208;SHT31;56321;47.662;8.878;2022-09-12T07:16:54;16.54;75.65
69208;SHT31;56321;47.662;8.878;2022-09-12T07:19:20;16.67;75.81
69208;SHT31;56321;47.662;8.878;2022-09-12T07:21:45;16.81;75.34
69208;SHT31;56321;47.662;8.878;2022-09-12T07:24:10;16.89;74.96
69208;SHT31;56321;47.662;8.878;2022-09-12T07:26:37;16.98;74.41
69208;SHT31;56321;47.662;8.878;2022-09-12T07:29:02;17.00;74.11
69208;SHT31;56321;47.662;8.878;2022-09-12T07:31:28;16.98;74.22
69208;SHT31;56321;47.662;8.878;2022-09-12T07:33:54;16.98;74.13
69208;SHT31;56321;47.662;8.878;2022-09-12T07:36:21;16.95;74.10
69208;SHT31;56321;47.662;8.878;2022-09-12T07:38:47;16.95;74.14
69208;SHT31;56321;47.662;8.878;2022-09-12T07:41:17;17.02;74.00
69208;SHT31;56321;47.662;8.878;2022-09-12T07:43:43;17.10;73.95
69208;SHT31;56321;47.662;8.878;2022-09-12T07:46:09;17.22;73.96
69208;SHT31;56321;47.662;8.878;2022-09-12T07:48:35;17.33;73.66
69208;SHT31;56321;47.662;8.878;2022-09-12T07:51:03;17.46;73.46
69208;SHT31;56321;47.662;8.878;2022-09-12T07:53:34;17.56;73.15
69208;SHT31;56321;47.662;8.878;2022-09-12T07:56:00;17.62;72.90
69208;SHT31;56321;47.662;8.878;2022-09-12T07:58:28;17.74;72.72
69208;SHT31;56321;47.662;8.878;2022-09-12T08:01:00;17.79;72.43
69208;SHT31;56321;47.662;8.878;2022-09-12T08:03:26;17.87;72.53
69208;SHT31;56321;47.662;8.878;2022-09-12T08:05:52;17.97;72.13
69208;SHT31;56321;47.662;8.878;2022-09-12T08:08:17;18.04;71.60
69208;SHT31;56321;47.662;8.878;2022-09-12T08:10:42;18.17;71.70
69208;SHT31;56321;47.662;8.878;2022-09-12T08:13:08;18.22;71.18
69208;SHT31;56321;47.662;8.878;2022-09-12T08:15:33;18.25;71.08
69208;SHT31;56321;47.662;8.878;2022-09-12T08:17:59;18.29;71.02
69208;SHT31;56321;47.662;8.878;2022-09-12T08:20:24;18.29;70.53
69208;SHT31;56321;47.662;8.878;2022-09-12T08:22:49;18.25;70.65
69208;SHT31;56321;47.662;8.878;2022-09-12T08:25:15;18.24;70.60
69208;SHT31;56321;47.662;8.878;2022-09-12T08:27:41;18.25;70.74
69208;SHT31;56321;47.662;8.878;2022-09-12T08:30:07;18.32;70.69
69208;SHT31;56321;47.662;8.878;2022-09-12T08:32:34;18.36;70.19
69208;SHT31;56321;47.662;8.878;2022-09-12T08:35:00;18.42;70.23
69208;SHT31;56321;47.662;8.878;2022-09-12T08:37:29;18.53;69.97
69208;SHT31;56321;47.662;8.878;2022-09-12T08:39:54;18.65;69.97
69208;SHT31;56321;47.662;8.878;2022-09-12T08:42:49;18.79;68.87
69208;SHT31;56321;47.662;8.878;2022-09-12T08:45:27;18.90;69.08
69208;SHT31;56321;47.662;8.878;2022-09-12T08:47:55;19.04;69.03
69208;SHT31;56321;47.662;8.878;2022-09-12T08:50:21;19.30;69.86
69208;SHT31;56321;47.662;8.878;2022-09-12T08:53:09;19.65;69.88
69208;SHT31;56321;47.662;8.878;2022-09-12T08:55:42;19.93;68.00
69208;SHT31;56321;47.662;8.878;2022-09-12T08:58:16;20.06;66.72
69208;SHT31;56321;47.662;8.878;2022-09-12T09:08:46;20.30;65.49
69208;SHT31;56321;47.662;8.878;2022-09-12T09:16:43;21.02;65.85
69208;SHT31;56321;47.662;8.878;2022-09-12T09:19:48;21.39;63.79
69208;SHT31;56321;47.662;8.878;2022-09-12T09:22:33;21.67;62.96
69208;SHT31;56321;47.662;8.878;2022-09-12T09:25:05;21.92;63.04
69208;SHT31;56321;47.662;8.878;2022-09-12T09:27:35;22.26;62.48
69208;SHT31;56321;47.662;8.878;2022-09-12T09:30:04;22.61;61.63
69208;SHT31;56321;47.662;8.878;2022-09-12T09:32:38;22.93;60.99
69208;SHT31;56321;47.662;8.878;2022-09-12T09:35:28;23.38;60.99
69208;SHT31;56321;47.662;8.878;2022-09-12T09:38:01;23.88;59.98
69208;SHT31;56321;47.662;8.878;2022-09-12T09:40:43;24.27;56.23
69208;SHT31;56321;47.662;8.878;2022-09-12T09:43:24;24.63;56.46
69208;SHT31;56321;47.662;8.878;2022-09-12T09:45:53;24.99;57.36
69208;SHT31;56321;47.662;8.878;2022-09-12T09:48:36;25.35;55.11
69208;SHT31;56321;47.662;8.878;2022-09-12T09:51:03;25.76;55.68
69208;SHT31;56321;47.662;8.878;2022-09-12T09:58:50;27.13;52.35
69208;SHT31;56321;47.662;8.878;2022-09-12T10:01:17;27.73;50.38
69208;SHT31;56321;47.662;8.878;2022-09-12T10:03:50;28.26;47.24
69208;SHT31;56321;47.662;8.878;2022-09-12T10:08:49;29.49;45.63
69208;SHT31;56321;47.662;8.878;2022-09-12T10:13:42;30.28;42.50
69208;SHT31;56321;47.662;8.878;2022-09-12T10:16:20;30.54;42.22
69208;SHT31;56321;47.662;8.878;2022-09-12T10:18:47;30.69;41.99
69208;SHT31;56321;47.662;8.878;2022-09-12T10:24:04;30.86;40.64
69208;SHT31;56321;47.662;8.878;2022-09-12T10:26:33;30.85;40.40
69208;SHT31;56321;47.662;8.878;2022-09-12T10:29:04;30.85;38.80
69208;SHT31;56321;47.662;8.878;2022-09-12T10:31:42;30.83;38.54
69208;SHT31;56321;47.662;8.878;2022-09-12T10:34:20;30.82;39.00
69208;SHT31;56321;47.662;8.878;2022-09-12T10:36:46;30.74;39.41
69208;SHT31;56321;47.662;8.878;2022-09-12T10:39:17;30.65;38.51
69208;SHT31;56321;47.662;8.878;2022-09-12T10:41:43;30.81;39.77
69208;SHT31;56321;47.662;8.878;2022-09-12T10:44:29;31.02;37.60
69208;SHT31;56321;47.662;8.878;2022-09-12T10:46:55;31.41;38.13
69208;SHT31;56321;47.662;8.878;2022-09-12T10:49:30;31.65;37.32
69208;SHT31;56321;47.662;8.878;2022-09-12T10:51:57;31.95;37.53
69208;SHT31;56321;47.662;8.878;2022-09-12T10:54:39;32.18;37.75
69208;SHT31;56321;47.662;8.878;2022-09-12T10:57:30;32.18;35.41
69208;SHT31;56321;47.662;8.878;2022-09-12T11:00:09;32.30;36.44
69208;SHT31;56321;47.662;8.878;2022-09-12T11:03:14;32.23;35.16
69208;SHT31;56321;47.662;8.878;2022-09-12T11:05:53;32.36;36.51
69208;SHT31;56321;47.662;8.878;2022-09-12T11:08:33;32.33;35.76
69208;SHT31;56321;47.662;8.878;2022-09-12T11:11:35;32.25;36.33
69208;SHT31;56321;47.662;8.878;2022-09-12T11:14:16;31.94;36.82
69208;SHT31;56321;47.662;8.878;2022-09-12T11:22:29;32.16;35.91
69208;SHT31;56321;47.662;8.878;2022-09-12T11:25:03;32.53;36.14
69208;SHT31;56321;47.662;8.878;2022-09-12T11:30:18;32.97;35.52
69208;SHT31;56321;47.662;8.878;2022-09-12T11:42:45;33.52;35.50
69208;SHT31;56321;47.662;8.878;2022-09-12T11:45:15;33.45;35.06
69208;SHT31;56321;47.662;8.878;2022-09-12T11:47:47;33.25;35.87
69208;SHT31;56321;47.662;8.878;2022-09-12T11:50:24;33.11;35.05
69208;SHT31;56321;47.662;8.878;2022-09-12T11:52:52;33.05;35.04
69208;SHT31;56321;47.662;8.878;2022-09-12T11:55:23;32.90;34.84
69208;SHT31;56321;47.662;8.878;2022-09-12T12:00:30;32.83;36.00
69208;SHT31;56321;47.662;8.878;2022-09-12T12:05:31;32.74;35.16
69208;SHT31;56321;47.662;8.878;2022-09-12T12:08:00;32.55;35.21
69208;SHT31;56321;47.662;8.878;2022-09-12T12:12:56;32.16;36.70
69208;SHT31;56321;47.662;8.878;2022-09-12T12:15:23;32.04;36.80
69208;SHT31;56321;47.662;8.878;2022-09-12T12:18:06;31.77;37.04
69208;SHT31;56321;47.662;8.878;2022-09-12T12:20:32;31.47;37.83
69208;SHT31;56321;47.662;8.878;2022-09-12T12:22:58;31.26;38.51
69208;SHT31;56321;47.662;8.878;2022-09-12T12:25:37;30.96;37.99
69208;SHT31;56321;47.662;8.878;2022-09-12T12:28:02;30.64;37.53
69208;SHT31;56321;47.662;8.878;2022-09-12T12:38:00;29.41;40.69
69208;SHT31;56321;47.662;8.878;2022-09-12T12:40:27;29.18;41.78
69208;SHT31;56321;47.662;8.878;2022-09-12T12:42:59;29.03;42.72
69208;SHT31;56321;47.662;8.878;2022-09-12T12:47:58;28.76;41.78
69208;SHT31;56321;47.662;8.878;2022-09-12T12:50:29;28.60;42.79
69208;SHT31;56321;47.662;8.878;2022-09-12T12:53:01;28.43;42.89
69208;SHT31;56321;47.662;8.878;2022-09-12T13:01:12;27.71;43.27
69208;SHT31;56321;47.662;8.878;2022-09-12T13:03:46;27.60;43.99
69208;SHT31;56321;47.662;8.878;2022-09-12T13:09:03;27.42;44.29
69208;SHT31;56321;47.662;8.878;2022-09-12T13:11:33;27.30;44.39
69208;SHT31;56321;47.662;8.878;2022-09-12T13:14:02;27.15;45.78
69208;SHT31;56321;47.662;8.878;2022-09-12T13:16:36;27.02;44.16
69208;SHT31;56321;47.662;8.878;2022-09-12T13:19:07;26.85;43.48
69208;SHT31;56321;47.662;8.878;2022-09-12T13:21:35;26.72;45.56
69208;SHT31;56321;47.662;8.878;2022-09-12T13:24:12;26.61;45.99
69208;SHT31;56321;47.662;8.878;2022-09-12T13:26:42;26.57;46.26
69208;SHT31;56321;47.662;8.878;2022-09-12T13:29:19;26.39;45.35
69208;SHT31;56321;47.662;8.878;2022-09-12T13:31:47;26.33;47.21
69208;SHT31;56321;47.662;8.878;2022-09-12T13:34:22;26.32;47.99
69208;SHT31;56321;47.662;8.878;2022-09-12T13:37:52;26.33;49.00
69208;SHT31;56321;47.662;8.878;2022-09-12T13:39:48;26.32;47.76
69208;SHT31;56321;47.662;8.878;2022-09-12T13:45:43;26.06;46.58
69208;SHT31;56321;47.662;8.878;2022-09-12T13:47:58;25.99;46.81
69208;SHT31;56321;47.662;8.878;2022-09-12T13:50:45;25.89;46.64
69208;SHT31;56321;47.662;8.878;2022-09-12T13:53:17;25.88;46.66
69208;SHT31;56321;47.662;8.878;2022-09-12T13:55:49;25.79;47.62
69208;SHT31;56321;47.662;8.878;2022-09-12T14:00:44;25.65;48.28
69208;SHT31;56321;47.662;8.878;2022-09-12T14:03:31;25.61;49.11
69208;SHT31;56321;47.662;8.878;2022-09-12T14:06:16;25.58;49.73
69208;SHT31;56321;47.662;8.878;2022-09-12T14:08:44;25.55;47.98
69208;SHT31;56321;47.662;8.878;2022-09-12T14:11:17;25.55;48.80
69208;SHT31;56321;47.662;8.878;2022-09-12T14:13:45;25.54;49.50
69208;SHT31;56321;47.662;8.878;2022-09-12T14:16:10;25.51;50.50
69208;SHT31;56321;47.662;8.878;2022-09-12T14:18:37;25.49;48.26
69208;SHT31;56321;47.662;8.878;2022-09-12T14:21:11;25.44;49.21
69208;SHT31;56321;47.662;8.878;2022-09-12T14:23:43;25.44;49.70
69208;SHT31;56321;47.662;8.878;2022-09-12T14:26:11;25.42;49.55
69208;SHT31;56321;47.662;8.878;2022-09-12T14:28:44;25.31;48.57
69208;SHT31;56321;47.662;8.878;2022-09-12T14:34:10;25.21;47.80
69208;SHT31;56321;47.662;8.878;2022-09-12T14:36:49;25.21;47.48
69208;SHT31;56321;47.662;8.878;2022-09-12T14:41:46;25.14;48.98
69208;SHT31;56321;47.662;8.878;2022-09-12T14:44:19;25.16;50.98
69208;SHT31;56321;47.662;8.878;2022-09-12T14:46:46;25.16;48.90
69208;SHT31;56321;47.662;8.878;2022-09-12T14:49:44;24.99;47.63
69208;SHT31;56321;47.662;8.878;2022-09-12T14:54:57;24.86;48.93
69208;SHT31;56321;47.662;8.878;2022-09-12T14:57:39;24.77;49.36
69208;SHT31;56321;47.662;8.878;2022-09-12T15:02:41;24.76;50.07
69208;SHT31;56321;47.662;8.878;2022-09-12T15:07:42;24.73;51.17
69208;SHT31;56321;47.662;8.878;2022-09-12T15:12:42;24.66;50.61
69208;SHT31;56321;47.662;8.878;2022-09-12T15:15:16;24.68;51.87
69208;SHT31;56321;47.662;8.878;2022-09-12T15:17:42;24.68;49.54
69208;SHT31;56321;47.662;8.878;2022-09-12T15:20:07;24.63;50.00
69208;SHT31;56321;47.662;8.878;2022-09-12T15:22:35;24.61;50.76
69208;SHT31;56321;47.662;8.878;2022-09-12T15:25:02;24.59;50.46
69208;SHT31;56321;47.662;8.878;2022-09-12T15:27:28;24.61;49.46
69208;SHT31;56321;47.662;8.878;2022-09-12T15:29:53;24.54;51.06
69208;SHT31;56321;47.662;8.878;2022-09-12T15:32:27;24.49;51.51
69208;SHT31;56321;47.662;8.878;2022-09-12T15:34:53;24.49;51.55
69208;SHT31;56321;47.662;8.878;2022-09-12T15:37:21;24.48;50.55
69208;SHT31;56321;47.662;8.878;2022-09-12T15:39:48;24.45;51.47
69208;SHT31;56321;47.662;8.878;2022-09-12T15:42:15;24.42;50.46
69208;SHT31;56321;47.662;8.878;2022-09-12T15:44:40;24.39;50.99
69208;SHT31;56321;47.662;8.878;2022-09-12T15:47:09;24.35;50.04
69208;SHT31;56321;47.662;8.878;2022-09-12T15:49:35;24.32;50.24
69208;SHT31;56321;47.662;8.878;2022-09-12T15:52:01;24.28;50.86
69208;SHT31;56321;47.662;8.878;2022-09-12T15:54:26;24.25;51.96
69208;SHT31;56321;47.662;8.878;2022-09-12T15:56:52;24.21;50.65
69208;SHT31;56321;47.662;8.878;2022-09-12T15:59:17;24.15;50.23
69208;SHT31;56321;47.662;8.878;2022-09-12T16:01:42;24.11;49.98
69208;SHT31;56321;47.662;8.878;2022-09-12T16:04:25;24.04;51.66
69208;SHT31;56321;47.662;8.878;2022-09-12T16:06:51;24.00;51.22
69208;SHT31;56321;47.662;8.878;2022-09-12T16:09:17;23.98;51.41
69208;SHT31;56321;47.662;8.878;2022-09-12T16:11:43;23.92;50.70
69208;SHT31;56321;47.662;8.878;2022-09-12T16:14:12;23.86;50.50
69208;SHT31;56321;47.662;8.878;2022-09-12T16:16:38;23.80;51.02
69208;SHT31;56321;47.662;8.878;2022-09-12T16:19:04;23.74;52.45
69208;SHT31;56321;47.662;8.878;2022-09-12T16:21:29;23.73;52.16
69208;SHT31;56321;47.662;8.878;2022-09-12T16:23:56;23.69;53.10
69208;SHT31;56321;47.662;8.878;2022-09-12T16:26:21;23.65;52.53
69208;SHT31;56321;47.662;8.878;2022-09-12T16:28:47;23.63;52.69
69208;SHT31;56321;47.662;8.878;2022-09-12T16:31:17;23.60;53.04
69208;SHT31;56321;47.662;8.878;2022-09-12T16:33:43;23.56;53.18
69208;SHT31;56321;47.662;8.878;2022-09-12T16:36:11;23.50;54.14
69208;SHT31;56321;47.662;8.878;2022-09-12T16:38:40;23.43;53.70
69208;SHT31;56321;47.662;8.878;2022-09-12T16:41:06;23.38;54.28
69208;SHT31;56321;47.662;8.878;2022-09-12T16:43:33;23.37;54.49
69208;SHT31;56321;47.662;8.878;2022-09-12T16:46:03;23.29;55.25
69208;SHT31;56321;47.662;8.878;2022-09-12T16:48:29;23.22;55.47
69208;SHT31;56321;47.662;8.878;2022-09-12T16:51:00;23.19;56.10
69208;SHT31;56321;47.662;8.878;2022-09-12T16:53:28;23.15;56.57
69208;SHT31;56321;47.662;8.878;2022-09-12T16:55:55;23.14;57.31
69208;SHT31;56321;47.662;8.878;2022-09-12T16:58:20;23.12;57.68
69208;SHT31;56321;47.662;8.878;2022-09-12T17:00:45;23.14;58.00
69208;SHT31;56321;47.662;8.878;2022-09-12T17:03:11;23.10;58.13
69208;SHT31;56321;47.662;8.878;2022-09-12T17:05:36;23.04;58.27
69208;SHT31;56321;47.662;8.878;2022-09-12T17:08:01;22.98;58.63
69208;SHT31;56321;47.662;8.878;2022-09-12T17:10:27;22.88;58.73
69208;SHT31;56321;47.662;8.878;2022-09-12T17:12:54;22.83;58.87
69208;SHT31;56321;47.662;8.878;2022-09-12T17:15:20;22.71;59.04
69208;SHT31;56321;47.662;8.878;2022-09-12T17:17:46;22.64;58.98
69208;SHT31;56321;47.662;8.878;2022-09-12T17:20:11;22.57;58.91
69208;SHT31;56321;47.662;8.878;2022-09-12T17:22:36;22.52;58.85
69208;SHT31;56321;47.662;8.878;2022-09-12T17:25:02;22.46;58.67
69208;SHT31;56321;47.662;8.878;2022-09-12T17:27:27;22.42;58.71
69208;SHT31;56321;47.662;8.878;2022-09-12T17:29:53;22.39;58.72
69208;SHT31;56321;47.662;8.878;2022-09-12T17:32:18;22.32;58.74
69208;SHT31;56321;47.662;8.878;2022-09-12T17:34:43;22.23;59.02
69208;SHT31;56321;47.662;8.878;2022-09-12T17:37:09;22.15;59.09
69208;SHT31;56321;47.662;8.878;2022-09-12T17:39:34;22.05;59.25
69208;SHT31;56321;47.662;8.878;2022-09-12T17:42:00;21.98;59.28
69208;SHT31;56321;47.662;8.878;2022-09-12T17:44:25;21.91;59.46
69208;SHT31;56321;47.662;8.878;2022-09-12T17:46:53;21.84;59.69
69208;SHT31;56321;47.662;8.878;2022-09-12T17:49:18;21.74;59.86
69208;SHT31;56321;47.662;8.878;2022-09-12T17:51:46;21.68;60.22
69208;SHT31;56321;47.662;8.878;2022-09-12T17:54:15;21.61;60.53
69208;SHT31;56321;47.662;8.878;2022-09-12T17:56:41;21.55;60.65
69208;SHT31;56321;47.662;8.878;2022-09-12T17:59:11;21.44;61.09